Time;durP1;ratioP1;P1;durP2;ratioP2;P2;SDS_P1;SDS_P2;PMS_P1;PMS_P2;Temp;Humidity;BMP_temperature;BMP_pressure;BME280_temperature;BME280_humidity;BME280_pressure;Samples;Min_cycle;Max_cycle;Signal;HPM_P1;HPM_P2
2023/12/13 00:01:53;;;;;;;15.50;6.28;;;7.30;99.90;;;;;;4985581;28;20042;-70
2023/12/13 00:04:19;;;;;;;19.80;8.15;;;7.40;99.90;;;;;;5002686;28;20048;-70
2023/12/13 00:06:45;;;;;;;15.70;9.20;;;7.40;99.90;;;;;;5004242;28;20046;-70
2023/12/13 00:09:12;;;;;;;20.10;8.82;;;7.40;99.90;;;;;;5002800;28;20041;-70
2023/12/13 00:11:38;;;;;;;21.73;8.32;;;7.40;99.90;;;;;;5003721;28;20097;-71
2023/12/13 00:14:05;;;;;;;18.58;9.77;;;7.40;99.90;;;;;;4985061;28;20562;-70
2023/12/13 00:16:31;;;;;;;22.23;8.07;;;7.40;99.90;;;;;;4986106;28;20056;-70
2023/12/13 00:18:57;;;;;;;15.77;8.25;;;7.40;99.90;;;;;;4968923;28;20498;-71
2023/12/13 00:21:22;;;;;;;23.98;9.48;;;7.40;99.90;;;;;;5003974;28;20096;-71
2023/12/13 00:23:48;;;;;;;22.00;8.23;;;7.30;99.90;;;;;;5003196;28;20053;-71
2023/12/13 00:26:18;;;;;;;26.95;8.93;;;7.30;99.90;;;;;;4985447;28;20468;-71
2023/12/13 00:28:45;;;;;;;17.65;8.85;;;7.30;99.90;;;;;;5004250;28;20132;-71
2023/12/13 00:31:13;;;;;;;22.02;8.60;;;7.30;99.90;;;;;;5002634;28;20092;-71
2023/12/13 00:33:39;;;;;;;22.13;8.73;;;7.30;99.90;;;;;;5003363;28;20045;-70
2023/12/13 00:36:05;;;;;;;15.82;8.50;;;7.30;99.90;;;;;;4981590;28;20492;-71
2023/12/13 00:38:31;;;;;;;18.02;8.82;;;7.30;99.90;;;;;;5003718;28;20046;-70
2023/12/13 00:40:57;;;;;;;16.75;7.93;;;7.30;99.90;;;;;;4985922;28;20045;-70
2023/12/13 00:43:22;;;;;;;20.38;7.32;;;7.40;99.90;;;;;;4980957;28;20060;-70
2023/12/13 00:45:48;;;;;;;17.25;8.13;;;7.30;99.90;;;;;;4997400;28;20492;-71
2023/12/13 00:48:16;;;;;;;13.35;7.32;;;7.40;99.90;;;;;;4964707;28;20132;-71
2023/12/13 00:50:42;;;;;;;13.82;6.88;;;7.40;99.90;;;;;;4965007;28;20540;-71
2023/12/13 00:53:08;;;;;;;18.02;6.63;;;7.30;99.90;;;;;;4981247;28;20520;-71
2023/12/13 00:55:34;;;;;;;8.18;6.38;;;7.40;99.90;;;;;;4981890;28;20380;-70
2023/12/13 00:57:59;;;;;;;11.40;7.15;;;7.40;99.90;;;;;;4982612;28;20493;-71
2023/12/13 01:00:25;;;;;;;10.27;6.13;;;7.40;99.90;;;;;;4981674;28;20046;-71
2023/12/13 01:02:52;;;;;;;8.52;6.53;;;7.40;99.90;;;;;;4980372;28;20054;-71
2023/12/13 01:05:18;;;;;;;8.95;6.90;;;7.40;99.90;;;;;;4981760;28;20050;-71
2023/12/13 01:07:44;;;;;;;24.75;6.93;;;7.40;99.90;;;;;;4981193;28;20341;-70
2023/12/13 01:10:10;;;;;;;11.43;6.97;;;7.40;99.90;;;;;;4968498;28;20050;-71
2023/12/13 01:12:36;;;;;;;8.80;6.05;;;7.40;99.90;;;;;;4965637;28;20046;-71
2023/12/13 01:15:02;;;;;;;14.68;6.57;;;7.40;99.90;;;;;;4967963;28;20050;-71
2023/12/13 01:17:27;;;;;;;7.97;6.28;;;7.30;99.90;;;;;;4985625;28;20086;-71
2023/12/13 01:19:53;;;;;;;11.82;7.57;;;7.30;99.90;;;;;;5000449;28;20555;-71
2023/12/13 01:22:20;;;;;;;17.63;8.45;;;7.20;99.90;;;;;;5000186;28;20045;-71
2023/12/13 01:24:46;;;;;;;9.77;6.85;;;7.20;99.90;;;;;;4984915;28;20062;-71
2023/12/13 01:27:12;;;;;;;13.23;7.35;;;7.30;99.90;;;;;;4985469;28;20050;-70
2023/12/13 01:29:38;;;;;;;14.02;7.18;;;7.30;99.90;;;;;;4984682;28;20038;-70
2023/12/13 01:32:04;;;;;;;13.18;7.15;;;7.20;99.90;;;;;;4999986;28;20050;-71
2023/12/13 01:34:30;;;;;;;14.73;7.60;;;7.30;99.90;;;;;;4984642;28;20061;-70
2023/12/13 01:36:56;;;;;;;15.15;7.22;;;7.20;99.90;;;;;;4985054;28;20101;-70
2023/12/13 01:39:22;;;;;;;10.90;8.30;;;7.20;99.90;;;;;;4967646;28;20042;-70
2023/12/13 01:41:47;;;;;;;13.00;7.88;;;7.20;99.90;;;;;;4985490;28;20073;-71
2023/12/13 01:44:13;;;;;;;16.23;7.55;;;7.20;99.90;;;;;;5001795;28;20058;-71
2023/12/13 01:46:51;;;;;;;12.32;7.78;;;7.20;99.90;;;;;;4985400;28;20113;-71
2023/12/13 01:49:17;;;;;;;11.55;6.97;;;7.20;99.90;;;;;;4984707;28;20042;-71
2023/12/13 01:51:44;;;;;;;14.85;8.13;;;7.20;99.90;;;;;;4984471;28;20046;-71
2023/12/13 01:54:14;;;;;;;16.73;8.40;;;7.20;99.90;;;;;;4967958;28;20384;-71
2023/12/13 01:56:42;;;;;;;10.43;7.32;;;7.20;99.90;;;;;;4984397;28;20161;-71
2023/12/13 01:59:09;;;;;;;12.55;7.55;;;7.20;99.90;;;;;;4985179;28;20038;-71
2023/12/13 02:01:35;;;;;;;10.73;7.38;;;7.20;99.90;;;;;;4984825;28;20050;-70
2023/12/13 02:04:02;;;;;;;15.18;7.70;;;7.10;99.90;;;;;;4984243;28;20151;-71
2023/12/13 02:06:29;;;;;;;25.73;9.18;;;7.20;99.90;;;;;;4967072;28;20183;-71
2023/12/13 02:08:55;;;;;;;13.05;7.75;;;7.10;99.90;;;;;;4984539;28;20050;-71
2023/12/13 02:11:21;;;;;;;16.98;7.68;;;7.10;99.90;;;;;;4950955;28;20522;-71
2023/12/13 02:13:46;;;;;;;18.17;8.35;;;7.10;99.90;;;;;;4983949;28;21322;-71
2023/12/13 02:16:12;;;;;;;27.60;9.45;;;7.00;99.90;;;;;;4967351;28;20121;-71
2023/12/13 02:18:38;;;;;;;21.67;7.88;;;7.10;99.90;;;;;;4984021;28;20069;-71
2023/12/13 02:21:05;;;;;;;14.43;8.45;;;7.10;99.90;;;;;;4984134;28;20044;-71
2023/12/13 02:23:31;;;;;;;15.73;8.75;;;7.00;99.90;;;;;;4984416;28;20058;-70
2023/12/13 02:26:03;;;;;;;11.10;7.85;;;7.00;99.90;;;;;;4966569;28;20049;-71
2023/12/13 02:28:30;;;;;;;16.13;8.27;;;7.10;99.90;;;;;;4966343;28;20050;-70
2023/12/13 02:30:58;;;;;;;15.55;8.95;;;7.10;99.90;;;;;;4966550;28;20053;-70
2023/12/13 02:33:28;;;;;;;14.30;7.25;;;7.10;99.90;;;;;;4951474;28;20042;-71
2023/12/13 02:35:59;;;;;;;17.23;8.13;;;7.10;99.90;;;;;;4966448;28;20579;-71
2023/12/13 02:38:24;;;;;;;;;;;7.10;99.90;;;;;;4984856;28;20038;-71
2023/12/13 02:40:52;;;;;;;18.73;8.90;;;7.20;99.90;;;;;;4982821;28;20231;-71
2023/12/13 02:43:19;;;;;;;13.82;7.93;;;7.10;99.90;;;;;;4984816;28;20498;-71
2023/12/13 02:45:45;;;;;;;17.15;9.77;;;7.10;99.90;;;;;;5003173;28;20396;-71
2023/12/13 02:48:10;;;;;;;24.75;10.35;;;7.10;99.90;;;;;;5003664;28;20054;-71
2023/12/13 02:50:38;;;;;;;29.83;9.85;;;7.10;99.90;;;;;;4985658;28;20042;-71
2023/12/13 02:53:05;;;;;;;32.17;10.55;;;7.10;99.90;;;;;;5002999;28;20379;-71
2023/12/13 02:55:31;;;;;;;18.55;9.90;;;7.10;99.90;;;;;;4984096;28;20038;-70
2023/12/13 02:57:56;;;;;;;21.17;9.60;;;7.10;99.90;;;;;;5002777;28;20046;-71
2023/12/13 03:00:22;;;;;;;18.83;9.82;;;7.10;99.90;;;;;;4984915;28;20053;-71
2023/12/13 03:02:48;;;;;;;23.45;12.07;;;7.10;99.90;;;;;;4984346;28;20038;-71
2023/12/13 03:05:14;;;;;;;20.02;10.02;;;7.10;99.90;;;;;;4969100;28;20060;-70
2023/12/13 03:07:40;;;;;;;19.05;10.48;;;7.20;99.90;;;;;;4969343;28;20057;-71
2023/12/13 03:10:06;;;;;;;26.10;11.23;;;7.20;99.90;;;;;;4985341;28;20485;-71
2023/12/13 03:12:32;;;;;;;14.85;10.43;;;7.20;99.90;;;;;;4985070;28;20076;-70
2023/12/13 03:14:58;;;;;;;21.00;10.88;;;7.30;99.90;;;;;;5003171;28;20042;-70
2023/12/13 03:17:23;;;;;;;24.02;12.85;;;7.40;99.90;;;;;;5002788;28;20515;-71
2023/12/13 03:19:49;;;;;;;21.02;12.25;;;7.30;99.90;;;;;;4985287;28;20065;-71
2023/12/13 03:22:15;;;;;;;20.42;12.35;;;7.40;99.90;;;;;;5002750;28;20049;-70
2023/12/13 03:24:42;;;;;;;22.92;12.77;;;7.40;99.90;;;;;;5001876;28;20144;-71
2023/12/13 03:27:07;;;;;;;21.77;12.55;;;7.40;99.90;;;;;;4999239;28;20050;-70
2023/12/13 03:29:33;;;;;;;22.48;12.85;;;7.40;99.90;;;;;;4993882;28;20432;-71
2023/12/13 03:31:59;;;;;;;23.38;12.85;;;7.40;99.90;;;;;;5001710;28;20710;-71
2023/12/13 03:34:25;;;;;;;21.70;12.27;;;7.40;99.90;;;;;;4984731;28;20041;-71
2023/12/13 03:36:51;;;;;;;25.20;12.90;;;7.50;99.90;;;;;;5002608;28;20078;-70
2023/12/13 03:39:17;;;;;;;25.50;13.95;;;7.40;99.90;;;;;;4985411;28;20424;-71
2023/12/13 03:41:43;;;;;;;19.67;12.50;;;7.40;99.90;;;;;;5002534;28;20072;-70
2023/12/13 03:44:08;;;;;;;22.70;12.05;;;7.40;99.90;;;;;;4984236;28;20056;-70
2023/12/13 03:46:34;;;;;;;24.42;12.57;;;7.40;99.90;;;;;;4985013;28;20125;-70
2023/12/13 03:49:00;;;;;;;33.95;13.98;;;7.50;99.90;;;;;;5002117;28;20073;-70
2023/12/13 03:51:26;;;;;;;25.27;13.85;;;7.50;99.90;;;;;;4984958;28;20560;-70
2023/12/13 03:53:51;;;;;;;28.48;12.65;;;7.50;99.90;;;;;;5002153;28;20049;-70
2023/12/13 03:56:17;;;;;;;35.90;12.93;;;7.50;99.90;;;;;;4999941;28;20052;-71
2023/12/13 03:58:43;;;;;;;23.27;13.10;;;7.40;99.90;;;;;;5002221;28;20077;-70
2023/12/13 04:01:09;;;;;;;36.88;15.43;;;7.50;99.90;;;;;;5002148;28;20052;-70
2023/12/13 04:03:34;;;;;;;26.40;13.80;;;7.50;99.90;;;;;;4968273;28;20088;-70
2023/12/13 04:06:03;;;;;;;31.33;13.23;;;7.50;99.90;;;;;;5001748;28;20049;-70
2023/12/13 04:08:29;;;;;;;35.97;13.77;;;7.50;99.90;;;;;;4968473;28;20057;-70
2023/12/13 04:10:55;;;;;;;24.98;13.77;;;7.50;99.90;;;;;;4983932;28;20038;-70
2023/12/13 04:13:21;;;;;;;27.63;12.73;;;7.40;99.90;;;;;;5002797;28;20345;-70
2023/12/13 04:15:46;;;;;;;29.13;13.63;;;7.40;99.90;;;;;;4999237;28;20480;-70
2023/12/13 04:18:13;;;;;;;23.23;13.20;;;7.40;99.90;;;;;;4989577;28;20062;-71
2023/12/13 04:20:39;;;;;;;34.00;13.85;;;7.40;99.90;;;;;;4984614;28;20116;-70
2023/12/13 04:23:05;;;;;;;26.02;13.07;;;7.40;99.90;;;;;;4983902;28;20050;-70
2023/12/13 04:25:31;;;;;;;21.30;13.05;;;7.40;99.90;;;;;;5002456;28;20085;-70
2023/12/13 04:27:57;;;;;;;28.52;12.75;;;7.40;99.90;;;;;;4983720;28;20075;-70
2023/12/13 04:30:23;;;;;;;25.63;12.80;;;7.40;99.90;;;;;;5002003;28;20398;-70
2023/12/13 04:32:49;;;;;;;25.23;13.23;;;7.40;99.90;;;;;;4983832;28;20216;-70
2023/12/13 04:35:14;;;;;;;24.88;12.73;;;7.40;99.90;;;;;;4984546;28;20770;-70
2023/12/13 04:37:40;;;;;;;26.88;12.68;;;7.40;99.90;;;;;;4984162;28;20042;-70
2023/12/13 04:40:07;;;;;;;37.22;13.07;;;7.40;99.90;;;;;;5000651;28;20046;-71
2023/12/13 04:42:33;;;;;;;22.73;12.30;;;7.40;99.90;;;;;;5002364;28;20050;-70
2023/12/13 04:44:59;;;;;;;27.08;13.68;;;7.30;99.90;;;;;;4987302;28;20050;-70
2023/12/13 04:47:25;;;;;;;25.38;12.15;;;7.40;99.90;;;;;;5006124;28;20057;-71
2023/12/13 04:49:51;;;;;;;21.67;12.88;;;7.40;99.90;;;;;;5005544;28;20064;-71
2023/12/13 04:52:17;;;;;;;21.63;13.48;;;7.30;99.90;;;;;;4987893;28;20424;-71
2023/12/13 04:54:43;;;;;;;21.92;12.35;;;7.40;99.90;;;;;;5005762;28;20054;-70
2023/12/13 04:57:08;;;;;;;23.45;12.63;;;7.40;99.90;;;;;;5005491;28;20104;-70
2023/12/13 04:59:34;;;;;;;29.15;12.75;;;7.30;99.90;;;;;;5005850;28;20052;-71
2023/12/13 05:02:00;;;;;;;23.73;12.23;;;7.40;99.90;;;;;;5003267;28;20120;-71
2023/12/13 05:04:25;;;;;;;20.75;11.68;;;7.30;99.90;;;;;;5005636;28;20045;-70
2023/12/13 05:06:51;;;;;;;21.63;11.98;;;7.30;99.90;;;;;;5004925;28;20054;-71
2023/12/13 05:09:17;;;;;;;20.58;11.52;;;7.40;99.90;;;;;;4999905;28;20084;-71
2023/12/13 05:11:43;;;;;;;24.30;11.68;;;7.30;99.90;;;;;;5004862;28;20401;-71
2023/12/13 05:14:10;;;;;;;22.85;12.05;;;7.40;99.90;;;;;;5005301;28;20046;-71
2023/12/13 05:16:35;;;;;;;19.98;11.73;;;7.30;99.90;;;;;;5005215;28;20038;-70
2023/12/13 05:19:02;;;;;;;28.20;11.80;;;7.40;99.90;;;;;;4985145;28;20053;-70
2023/12/13 05:21:28;;;;;;;24.25;11.60;;;7.40;99.90;;;;;;5005545;28;20042;-71
2023/12/13 05:23:54;;;;;;;23.90;11.38;;;7.40;99.90;;;;;;5002817;28;20463;-71
2023/12/13 05:26:19;;;;;;;21.38;10.13;;;7.40;99.90;;;;;;4987502;28;20042;-71
2023/12/13 05:28:45;;;;;;;21.65;11.48;;;7.30;99.90;;;;;;4983372;28;20340;-71
2023/12/13 05:31:21;;;;;;;19.70;11.13;;;7.40;99.90;;;;;;5000616;28;20508;-71
2023/12/13 05:33:48;;;;;;;23.65;11.63;;;7.30;99.90;;;;;;4998797;28;20053;-70
2023/12/13 05:36:14;;;;;;;28.63;11.60;;;7.30;99.90;;;;;;5004965;28;20042;-71
2023/12/13 05:38:46;;;;;;;20.45;10.80;;;7.30;99.90;;;;;;5005076;28;20646;-71
2023/12/13 05:41:12;;;;;;;27.95;11.27;;;7.40;99.90;;;;;;4986938;28;20050;-70
2023/12/13 05:43:38;;;;;;;37.95;12.27;;;7.30;99.90;;;;;;5002313;28;20058;-71
2023/12/13 05:46:05;;;;;;;21.58;11.07;;;7.40;99.90;;;;;;5004560;28;20369;-71
2023/12/13 05:48:31;;;;;;;25.27;12.23;;;7.30;99.90;;;;;;5004861;28;20421;-71
2023/12/13 05:50:58;;;;;;;21.25;12.30;;;7.40;99.90;;;;;;5003871;28;20045;-71
2023/12/13 05:53:23;;;;;;;23.70;11.75;;;7.30;99.90;;;;;;5004349;28;20041;-70
2023/12/13 05:55:49;;;;;;;19.83;11.38;;;7.30;99.90;;;;;;5004608;28;20944;-71
2023/12/13 05:58:15;;;;;;;21.77;11.85;;;7.30;99.90;;;;;;4969990;28;20057;-71
2023/12/13 06:00:41;;;;;;;22.33;11.48;;;7.40;99.90;;;;;;5004271;28;20121;-71
2023/12/13 06:03:07;;;;;;;35.65;11.80;;;7.30;99.90;;;;;;5003908;28;20542;-71
2023/12/13 06:05:32;;;;;;;25.77;11.63;;;7.40;99.90;;;;;;5004462;28;20056;-71
2023/12/13 06:07:58;;;;;;;24.90;11.57;;;7.40;99.90;;;;;;5003978;28;20049;-71
2023/12/13 06:10:24;;;;;;;45.90;12.55;;;7.30;99.90;;;;;;4986967;28;20185;-70
2023/12/13 06:12:51;;;;;;;30.63;11.65;;;7.30;99.90;;;;;;5003642;28;20045;-71
2023/12/13 06:15:16;;;;;;;22.17;11.00;;;7.40;99.90;;;;;;4985983;28;20064;-71
2023/12/13 06:17:43;;;;;;;26.17;11.82;;;7.30;99.90;;;;;;5004319;28;20126;-71
2023/12/13 06:20:09;;;;;;;27.30;12.20;;;7.30;99.90;;;;;;4986128;28;20062;-71
2023/12/13 06:22:36;;;;;;;20.85;11.43;;;7.30;99.90;;;;;;4986164;28;20448;-71
2023/12/13 06:25:02;;;;;;;31.23;11.38;;;7.40;99.90;;;;;;5003868;28;20128;-70
2023/12/13 06:27:28;;;;;;;23.83;11.82;;;7.40;99.90;;;;;;4977724;28;20049;-71
2023/12/13 06:29:54;;;;;;;20.58;10.88;;;7.40;99.90;;;;;;5011949;28;20052;-71
2023/12/13 06:32:19;;;;;;;35.45;11.63;;;7.40;99.90;;;;;;4995899;28;20520;-71
2023/12/13 06:34:46;;;;;;;25.60;11.68;;;7.40;99.90;;;;;;5003932;28;20052;-71
2023/12/13 06:37:12;;;;;;;41.28;12.57;;;7.40;99.90;;;;;;5001298;28;20803;-70
2023/12/13 06:39:38;;;;;;;23.98;10.60;;;7.30;99.90;;;;;;4999856;28;20065;-71
2023/12/13 06:42:08;;;;;;;25.77;11.15;;;7.40;99.90;;;;;;4985581;28;20060;-71
2023/12/13 06:44:38;;;;;;;22.23;11.32;;;7.40;99.90;;;;;;5001033;28;20556;-70
2023/12/13 06:47:05;;;;;;;23.02;9.65;;;7.40;99.90;;;;;;5003333;28;20053;-70
2023/12/13 06:49:34;;;;;;;32.95;11.50;;;7.40;99.90;;;;;;4985404;28;20073;-71
2023/12/13 06:52:01;;;;;;;29.02;11.05;;;7.40;99.90;;;;;;5000503;28;20038;-70
2023/12/13 06:54:28;;;;;;;30.60;11.07;;;7.40;99.90;;;;;;5003283;28;20042;-70
2023/12/13 06:56:54;;;;;;;30.52;12.02;;;7.40;99.90;;;;;;5004118;28;20333;-71
2023/12/13 06:59:20;;;;;;;33.65;11.93;;;7.40;99.90;;;;;;5002436;28;20045;-71
2023/12/13 07:01:52;;;;;;;31.10;11.70;;;7.40;99.90;;;;;;4990873;28;20080;-71
2023/12/13 07:04:17;;;;;;;24.38;11.40;;;7.40;99.90;;;;;;4984892;28;20089;-70
2023/12/13 07:06:44;;;;;;;25.17;11.77;;;7.40;99.90;;;;;;5014343;28;20045;-71
2023/12/13 07:09:10;;;;;;;34.50;12.98;;;7.40;99.90;;;;;;5003702;28;20042;-70
2023/12/13 07:11:36;;;;;;;28.77;13.77;;;7.40;99.90;;;;;;4985180;28;20077;-70
2023/12/13 07:14:02;;;;;;;41.95;12.25;;;7.40;99.90;;;;;;5002993;28;20088;-71
2023/12/13 07:16:34;;;;;;;26.73;13.88;;;7.40;99.90;;;;;;4981339;28;20111;-71
2023/12/13 07:19:00;;;;;;;26.52;13.07;;;7.40;99.90;;;;;;4992534;28;20053;-71
2023/12/13 07:21:26;;;;;;;37.05;14.15;;;7.40;99.90;;;;;;4998268;28;20502;-71
2023/12/13 07:23:51;;;;;;;29.50;14.57;;;7.40;99.90;;;;;;5007254;28;20038;-71
2023/12/13 07:26:17;;;;;;;30.92;13.90;;;7.40;99.90;;;;;;5008380;28;20045;-71
2023/12/13 07:28:44;;;;;;;27.30;12.82;;;7.40;99.90;;;;;;5022211;28;20136;-70
2023/12/13 07:31:09;;;;;;;22.08;11.50;;;7.40;99.90;;;;;;5005139;28;20056;-70
2023/12/13 07:33:38;;;;;;;23.52;10.95;;;7.40;99.90;;;;;;4991730;28;20042;-71
2023/12/13 07:36:04;;;;;;;34.40;11.60;;;7.40;99.90;;;;;;5003273;28;20042;-71
2023/12/13 07:38:30;;;;;;;27.30;11.57;;;7.40;99.90;;;;;;4984200;28;20530;-70
2023/12/13 07:40:56;;;;;;;21.65;11.23;;;7.40;99.90;;;;;;5008658;28;20050;-70
2023/12/13 07:43:21;;;;;;;21.45;11.23;;;7.40;99.90;;;;;;4993446;28;20040;-70
2023/12/13 07:45:51;;;;;;;26.00;11.15;;;7.40;99.90;;;;;;5015721;28;20073;-70
2023/12/13 07:48:20;;;;;;;36.22;12.32;;;7.40;99.90;;;;;;5005935;28;20034;-70
2023/12/13 07:50:46;;;;;;;23.23;10.73;;;7.50;99.90;;;;;;5010438;28;20603;-70
2023/12/13 07:53:12;;;;;;;24.65;11.98;;;7.40;99.90;;;;;;4986542;28;20053;-70
2023/12/13 07:55:38;;;;;;;21.00;10.40;;;7.50;99.90;;;;;;5013537;28;20060;-70
2023/12/13 07:58:04;;;;;;;18.10;10.52;;;7.40;99.90;;;;;;4985380;28;20492;-70
2023/12/13 08:00:29;;;;;;;24.70;10.98;;;7.40;99.90;;;;;;5001664;28;20077;-70
2023/12/13 08:02:55;;;;;;;28.85;10.35;;;7.50;99.90;;;;;;5006611;28;20450;-70
2023/12/13 08:05:21;;;;;;;22.33;11.27;;;7.40;99.90;;;;;;5012155;28;20053;-71
2023/12/13 08:07:47;;;;;;;23.45;10.95;;;7.40;99.90;;;;;;5016217;28;20530;-70
2023/12/13 08:10:12;;;;;;;21.63;11.45;;;7.50;99.90;;;;;;4989335;28;20408;-70
2023/12/13 08:12:42;;;;;;;22.45;10.75;;;7.40;99.90;;;;;;5001068;28;20103;-71
2023/12/13 08:15:10;;;;;;;24.92;11.38;;;7.40;99.90;;;;;;5004688;28;20419;-71
2023/12/13 08:17:36;;;;;;;32.90;12.32;;;7.50;99.90;;;;;;4989649;28;20207;-71
2023/12/13 08:20:01;;;;;;;35.78;11.88;;;7.50;99.90;;;;;;4983594;28;20053;-70
2023/12/13 08:22:27;;;;;;;37.45;13.15;;;7.50;99.90;;;;;;5001040;28;20949;-70
2023/12/13 08:24:53;;;;;;;32.15;11.07;;;7.50;99.90;;;;;;5001195;28;20132;-70
2023/12/13 08:27:18;;;;;;;31.30;12.07;;;7.50;99.90;;;;;;5001162;28;20076;-70
2023/12/13 08:29:44;;;;;;;31.20;11.27;;;7.50;99.90;;;;;;5001554;28;20404;-70
2023/12/13 08:32:10;;;;;;;28.80;11.43;;;7.50;99.90;;;;;;5001492;28;20548;-71
2023/12/13 08:34:36;;;;;;;32.53;11.57;;;7.50;99.90;;;;;;4983140;28;20572;-70
2023/12/13 08:37:01;;;;;;;43.85;13.00;;;7.50;99.90;;;;;;5001441;28;20116;-71
2023/12/13 08:39:27;;;;;;;37.22;14.52;;;7.50;99.90;;;;;;5012910;28;20414;-70
2023/12/13 08:41:53;;;;;;;42.60;15.00;;;7.60;99.90;;;;;;4984177;28;20576;-71
2023/12/13 08:44:19;;;;;;;36.42;15.10;;;7.50;99.90;;;;;;4996905;28;20054;-71
2023/12/13 08:46:46;;;;;;;35.65;15.25;;;7.60;99.90;;;;;;4997618;28;20116;-70
2023/12/13 08:49:12;;;;;;;43.42;14.93;;;7.60;99.90;;;;;;5003567;28;20042;-70
2023/12/13 08:51:37;;;;;;;30.98;11.70;;;7.50;99.90;;;;;;5000601;28;20053;-71
2023/12/13 08:54:04;;;;;;;20.08;11.20;;;7.50;99.90;;;;;;4983327;28;20488;-71
2023/12/13 08:56:30;;;;;;;31.50;11.57;;;7.60;99.90;;;;;;5000692;28;20096;-71
2023/12/13 08:58:55;;;;;;;22.08;10.88;;;7.50;99.90;;;;;;5001328;28;20492;-70
2023/12/13 09:01:21;;;;;;;25.02;10.45;;;7.60;99.90;;;;;;4984151;28;20050;-70
2023/12/13 09:03:47;;;;;;;23.10;11.18;;;7.60;99.90;;;;;;5000767;28;20050;-71
2023/12/13 09:06:14;;;;;;;26.70;12.70;;;7.60;99.90;;;;;;4983334;28;20049;-71
2023/12/13 09:08:41;;;;;;;30.58;12.85;;;7.60;99.90;;;;;;5000517;28;20659;-71
2023/12/13 09:11:07;;;;;;;48.58;13.88;;;7.60;99.90;;;;;;5001365;28;20042;-70
2023/12/13 09:13:33;;;;;;;34.78;12.77;;;7.70;99.90;;;;;;5000734;28;20057;-71
2023/12/13 09:15:59;;;;;;;26.15;11.80;;;7.60;99.90;;;;;;4984859;28;20135;-70
2023/12/13 09:18:24;;;;;;;29.40;13.73;;;7.70;99.90;;;;;;5003861;28;20458;-70
2023/12/13 09:20:50;;;;;;;38.58;12.77;;;7.70;99.90;;;;;;5009382;28;20524;-70
2023/12/13 09:23:22;;;;;;;32.67;11.73;;;7.70;99.90;;;;;;4988641;28;20049;-70
2023/12/13 09:25:48;;;;;;;33.15;11.80;;;7.70;99.90;;;;;;5002007;28;20041;-70
2023/12/13 09:28:14;;;;;;;24.20;11.95;;;7.80;99.90;;;;;;4996764;28;20045;-70
2023/12/13 09:30:40;;;;;;;34.42;11.65;;;7.80;99.90;;;;;;5009573;28;20270;-70
2023/12/13 09:33:05;;;;;;;21.40;11.63;;;7.80;99.90;;;;;;5006250;28;20403;-71
2023/12/13 09:35:32;;;;;;;127.13;15.60;;;7.80;99.90;;;;;;5021009;28;20046;-71
2023/12/13 09:37:58;;;;;;;72.10;14.57;;;7.90;99.90;;;;;;5020594;28;20049;-71
2023/12/13 09:40:24;;;;;;;63.28;14.18;;;7.80;99.90;;;;;;5005564;28;20041;-70
2023/12/13 09:42:49;;;;;;;60.17;13.70;;;7.90;99.90;;;;;;5009520;28;20053;-70
2023/12/13 09:45:20;;;;;;;40.42;13.70;;;7.80;99.90;;;;;;4999366;28;20159;-70
2023/12/13 09:47:49;;;;;;;113.13;16.10;;;7.70;99.90;;;;;;5015348;28;20045;-70
2023/12/13 09:50:15;;;;;;;19.95;11.38;;;7.60;99.90;;;;;;4991333;28;20041;-70
2023/12/13 09:52:42;;;;;;;42.58;10.73;;;7.60;99.90;;;;;;5011653;28;20054;-70
2023/12/13 09:55:09;;;;;;;75.47;13.82;;;7.60;99.90;;;;;;5003506;28;20046;-70
2023/12/13 09:57:35;;;;;;;18.98;10.80;;;7.60;99.90;;;;;;4983828;28;20610;-70
2023/12/13 10:00:01;;;;;;;25.83;11.05;;;7.50;99.90;;;;;;4989999;28;20045;-71
2023/12/13 10:02:26;;;;;;;15.50;9.70;;;7.60;99.90;;;;;;4988786;28;20092;-70
2023/12/13 10:04:53;;;;;;;19.02;10.02;;;7.60;99.90;;;;;;5020173;28;20054;-70
2023/12/13 10:07:18;;;;;;;17.63;9.85;;;7.70;99.90;;;;;;5003952;28;20042;-70
2023/12/13 10:09:45;;;;;;;17.42;10.10;;;7.80;99.90;;;;;;4992276;28;20700;-71
2023/12/13 10:12:15;;;;;;;13.65;8.32;;;7.80;99.90;;;;;;5003446;28;20921;-70
2023/12/13 10:14:43;;;;;;;15.18;8.23;;;7.90;99.90;;;;;;5018484;28;20056;-70
2023/12/13 10:17:08;;;;;;;13.93;8.23;;;7.90;99.90;;;;;;5006203;28;20052;-70
2023/12/13 10:19:35;;;;;;;14.27;8.38;;;7.90;99.90;;;;;;5015898;28;20037;-71
2023/12/13 10:22:05;;;;;;;14.98;7.55;;;7.90;99.90;;;;;;4999647;28;20058;-71
2023/12/13 10:24:31;;;;;;;9.60;6.70;;;7.90;99.90;;;;;;5017849;28;20044;-71
2023/12/13 10:26:57;;;;;;;8.65;5.93;;;7.80;99.90;;;;;;4985693;28;20045;-71
2023/12/13 10:29:23;;;;;;;9.20;5.97;;;7.80;99.90;;;;;;5003038;28;20164;-71
2023/12/13 10:31:49;;;;;;;7.18;5.72;;;7.80;99.90;;;;;;5024212;28;20049;-70
2023/12/13 10:34:16;;;;;;;8.80;5.97;;;7.80;99.90;;;;;;5010495;28;20104;-71
2023/12/13 10:36:43;;;;;;;11.55;5.47;;;7.90;99.90;;;;;;5014386;28;20076;-71
2023/12/13 10:39:12;;;;;;;8.85;6.22;;;7.80;99.90;;;;;;5011519;28;20317;-70
2023/12/13 10:41:39;;;;;;;9.53;6.03;;;7.70;99.90;;;;;;4969623;28;20050;-70
2023/12/13 10:44:07;;;;;;;7.38;5.22;;;7.80;99.90;;;;;;4995879;28;20046;-70
2023/12/13 10:46:37;;;;;;;8.02;5.22;;;7.70;99.90;;;;;;5001211;28;20054;-70
2023/12/13 10:49:03;;;;;;;10.00;5.73;;;7.70;99.90;;;;;;4970661;28;20054;-71
2023/12/13 10:51:32;;;;;;;7.72;5.68;;;7.70;99.90;;;;;;4984294;28;20439;-71
2023/12/13 10:54:06;;;;;;;10.70;5.95;;;7.60;99.90;;;;;;4976050;28;20049;-70
2023/12/13 10:56:41;;;;;;;7.65;5.15;;;7.60;99.90;;;;;;5002130;28;20105;-71
2023/12/13 10:59:16;;;;;;;7.38;5.40;;;7.50;99.90;;;;;;5002723;28;20155;-70
2023/12/13 11:01:43;;;;;;;8.85;5.35;;;7.50;99.90;;;;;;5000872;28;20046;-71
2023/12/13 11:04:18;;;;;;;8.70;4.82;;;7.50;99.90;;;;;;4984817;28;20058;-71
2023/12/13 11:07:11;;;;;;;8.88;5.13;;;7.40;99.90;;;;;;5002492;28;20038;-71
2023/12/13 11:10:06;;;;;;;6.78;5.20;;;7.50;99.90;;;;;;5002254;28;20184;-71
2023/12/13 11:12:32;;;;;;;7.90;4.53;;;7.50;99.90;;;;;;5016547;28;20046;-70
2023/12/13 11:14:59;;;;;;;6.45;4.60;;;7.50;99.90;;;;;;5010984;28;20056;-71
2023/12/13 11:17:27;;;;;;;7.13;5.05;;;7.40;99.90;;;;;;5008318;28;20474;-70
2023/12/13 11:19:53;;;;;;;4.35;3.83;;;7.40;99.90;;;;;;4984197;28;20054;-70
2023/12/13 11:22:31;;;;;;;7.53;4.47;;;7.40;99.90;;;;;;4973922;28;20053;-70
2023/12/13 11:25:04;;;;;;;6.88;4.32;;;7.40;99.90;;;;;;5002802;28;20049;-70
2023/12/13 11:27:57;;;;;;;10.77;4.27;;;7.40;99.90;;;;;;4998071;28;20126;-70
2023/12/13 11:30:24;;;;;;;5.70;4.00;;;7.30;99.90;;;;;;5000507;28;20307;-70
2023/12/13 11:33:33;;;;;;;5.57;4.13;;;7.30;99.90;;;;;;5002521;28;20536;-70
2023/12/13 11:35:59;;;;;;;5.40;3.83;;;7.40;99.90;;;;;;4900304;29;20048;-71
2023/12/13 11:38:40;;;;;;;8.82;3.55;;;7.30;99.90;;;;;;4987873;28;20101;-70
2023/12/13 11:41:07;;;;;;;6.90;3.75;;;7.30;99.90;;;;;;5001812;28;20519;-70
2023/12/13 11:43:34;;;;;;;7.05;3.35;;;7.30;99.90;;;;;;4967352;28;20049;-70
2023/12/13 11:50:04;;;;;;;4.43;2.80;;;7.30;99.90;;;;;;4993986;23;20050;-70
2023/12/13 11:52:30;;;;;;;9.80;3.25;;;7.30;99.90;;;;;;5000782;28;20057;-70
2023/12/13 11:55:00;;;;;;;4.85;3.05;;;7.40;99.90;;;;;;4975920;28;20038;-70
2023/12/13 11:57:25;;;;;;;6.00;3.03;;;7.30;99.90;;;;;;5005674;23;20388;-71
2023/12/13 11:59:51;;;;;;;4.68;2.72;;;7.30;99.90;;;;;;4986342;28;20456;-70
2023/12/13 12:02:19;;;;;;;8.82;2.85;;;7.30;99.90;;;;;;4979162;28;20065;-70
2023/12/13 12:04:45;;;;;;;3.65;2.22;;;7.30;99.90;;;;;;4964920;28;20053;-71
2023/12/13 12:07:15;;;;;;;5.45;2.58;;;7.30;99.90;;;;;;4990282;28;20038;-70
2023/12/13 12:09:48;;;;;;;8.18;2.50;;;7.30;99.90;;;;;;4969005;28;20050;-70
2023/12/13 12:12:42;;;;;;;5.15;1.73;;;7.20;99.90;;;;;;4969632;28;20050;-71
2023/12/13 12:15:09;;;;;;;3.70;2.00;;;7.30;99.90;;;;;;4984027;28;20396;-71
2023/12/13 12:17:35;;;;;;;5.40;2.17;;;7.20;99.90;;;;;;4977458;28;20050;-70
2023/12/13 12:20:03;;;;;;;6.53;1.95;;;7.10;99.90;;;;;;4966234;28;20065;-70
2023/12/13 12:22:33;;;;;;;2.55;1.95;;;7.10;99.90;;;;;;4984448;28;20050;-70
2023/12/13 12:24:59;;;;;;;4.15;2.17;;;7.00;99.90;;;;;;4968676;28;20077;-71
2023/12/13 12:27:26;;;;;;;3.13;1.60;;;7.00;99.90;;;;;;4983225;28;20485;-71
2023/12/13 12:30:11;;;;;;;1.60;1.50;;;7.00;99.90;;;;;;4989483;28;20061;-70
2023/12/13 12:32:37;;;;;;;1.40;1.20;;;6.90;99.90;;;;;;5020589;23;20049;-71
2023/12/13 12:35:05;;;;;;;2.15;1.60;;;6.90;99.90;;;;;;4977696;28;20046;-71
2023/12/13 12:37:49;;;;;;;5.53;1.60;;;6.90;99.90;;;;;;4993503;28;20087;-70
2023/12/13 12:40:17;;;;;;;4.30;1.20;;;6.80;99.90;;;;;;4996613;23;20062;-71
2023/12/13 12:43:01;;;;;;;5.97;1.80;;;6.80;99.90;;;;;;4949321;28;20046;-70
2023/12/13 12:45:28;;;;;;;3.60;1.35;;;6.80;99.90;;;;;;4974024;28;20057;-71
2023/12/13 12:48:33;;;;;;;4.30;1.45;;;6.70;99.90;;;;;;4965807;28;20066;-70